sensor_id;sensor_type;location;lat;lon;timestamp;temperature;humidity
2687;DHT22;1353;51.386;7.028;2022-11-15T00:01:28;10.70;99.90
2687;DHT22;1353;51.386;7.028;2022-11-15T00:03:54;10.90;99.90
2687;DHT22;1353;51.386;7.028;2022-11-15T00:06:21;10.90;99.90
2687;DHT22;1353;51.386;7.028;2022-11-15T00:08:49;10.90;99.90
2687;DHT22;1353;51.386;7.028;2022-11-15T00:11:16;10.90;99.90
2687;DHT22;1353;51.386;7.028;2022-11-15T00:13:43;11.00;99.90
2687;DHT22;1353;51.386;7.028;2022-11-15T00:16:10;11.00;99.90
2687;DHT22;1353;51.386;7.028;2022-11-15T00:18:37;11.00;99.90
2687;DHT22;1353;51.386;7.028;2022-11-15T00:21:05;11.00;99.90
2687;DHT22;1353;51.386;7.028;2022-11-15T00:23:33;11.10;99.90
2687;DHT22;1353;51.386;7.028;2022-11-15T00:26:01;11.10;99.90
2687;DHT22;1353;51.386;7.028;2022-11-15T00:28:28;11.20;99.90
2687;DHT22;1353;51.386;7.028;2022-11-15T00:31:00;11.20;99.90
2687;DHT22;1353;51.386;7.028;2022-11-15T00:33:27;11.10;99.90
2687;DHT22;1353;51.386;7.028;2022-11-15T00:35:58;11.10;99.90
2687;DHT22;1353;51.386;7.028;2022-11-15T00:38:25;11.20;99.90
2687;DHT22;1353;51.386;7.028;2022-11-15T00:40:53;11.20;99.90
2687;DHT22;1353;51.386;7.028;2022-11-15T00:43:21;11.20;99.90
2687;DHT22;1353;51.386;7.028;2022-11-15T00:45:47;11.30;99.90
2687;DHT22;1353;51.386;7.028;2022-11-15T00:48:14;11.30;99.90
2687;DHT22;1353;51.386;7.028;2022-11-15T00:50:41;11.40;99.90
2687;DHT22;1353;51.386;7.028;2022-11-15T00:53:07;11.30;99.90
2687;DHT22;1353;51.386;7.028;2022-11-15T00:55:34;11.30;99.90
2687;DHT22;1353;51.386;7.028;2022-11-15T00:58:01;11.40;99.90
2687;DHT22;1353;51.386;7.028;2022-11-15T01:00:29;11.40;99.90
2687;DHT22;1353;51.386;7.028;2022-11-15T01:02:56;11.40;99.90
2687;DHT22;1353;51.386;7.028;2022-11-15T01:05:22;11.40;99.90
2687;DHT22;1353;51.386;7.028;2022-11-15T01:07:51;11.50;99.90
2687;DHT22;1353;51.386;7.028;2022-11-15T01:10:18;11.50;99.90
2687;DHT22;1353;51.386;7.028;2022-11-15T01:12:45;11.50;99.90
2687;DHT22;1353;51.386;7.028;2022-11-15T01:15:11;11.60;99.90
2687;DHT22;1353;51.386;7.028;2022-11-15T01:17:40;11.60;99.90
2687;DHT22;1353;51.386;7.028;2022-11-15T01:20:08;11.70;99.90
2687;DHT22;1353;51.386;7.028;2022-11-15T01:22:34;11.70;99.90
2687;DHT22;1353;51.386;7.028;2022-11-15T01:25:01;11.70;99.90
2687;DHT22;1353;51.386;7.028;2022-11-15T01:27:28;11.70;99.90
2687;DHT22;1353;51.386;7.028;2022-11-15T01:29:55;11.80;99.90
2687;DHT22;1353;51.386;7.028;2022-11-15T01:32:21;11.70;99.90
2687;DHT22;1353;51.386;7.028;2022-11-15T01:34:49;11.60;99.90
2687;DHT22;1353;51.386;7.028;2022-11-15T01:37:16;11.60;99.90
2687;DHT22;1353;51.386;7.028;2022-11-15T01:39:43;11.60;99.90
2687;DHT22;1353;51.386;7.028;2022-11-15T01:42:12;11.50;99.90
2687;DHT22;1353;51.386;7.028;2022-11-15T01:44:44;11.40;99.90
2687;DHT22;1353;51.386;7.028;2022-11-15T01:47:15;11.50;99.90
2687;DHT22;1353;51.386;7.028;2022-11-15T01:49:49;11.50;99.90
2687;DHT22;1353;51.386;7.028;2022-11-15T01:52:20;11.70;99.90
2687;DHT22;1353;51.386;7.028;2022-11-15T01:54:50;11.70;99.90
2687;DHT22;1353;51.386;7.028;2022-11-15T01:57:19;11.70;99.90
2687;DHT22;1353;51.386;7.028;2022-11-15T01:59:46;11.60;99.90
2687;DHT22;1353;51.386;7.028;2022-11-15T02:02:13;11.60;99.90
2687;DHT22;1353;51.386;7.028;2022-11-15T02:04:45;11.60;99.90
2687;DHT22;1353;51.386;7.028;2022-11-15T02:07:15;11.60;99.90
2687;DHT22;1353;51.386;7.028;2022-11-15T02:09:45;11.60;99.90
2687;DHT22;1353;51.386;7.028;2022-11-15T02:12:15;11.70;99.90
2687;DHT22;1353;51.386;7.028;2022-11-15T02:14:45;11.80;99.90
2687;DHT22;1353;51.386;7.028;2022-11-15T02:17:25;11.70;99.90
2687;DHT22;1353;51.386;7.028;2022-11-15T02:20:14;11.80;99.90
2687;DHT22;1353;51.386;7.028;2022-11-15T02:23:04;11.70;99.90
2687;DHT22;1353;51.386;7.028;2022-11-15T02:25:41;11.80;99.90
2687;DHT22;1353;51.386;7.028;2022-11-15T02:28:31;11.80;99.90
2687;DHT22;1353;51.386;7.028;2022-11-15T02:31:04;11.80;99.90
2687;DHT22;1353;51.386;7.028;2022-11-15T02:33:39;11.80;99.90
2687;DHT22;1353;51.386;7.028;2022-11-15T02:36:12;11.70;99.90
2687;DHT22;1353;51.386;7.028;2022-11-15T02:38:47;11.50;99.90
2687;DHT22;1353;51.386;7.028;2022-11-15T02:41:25;11.40;99.90
2687;DHT22;1353;51.386;7.028;2022-11-15T02:43:58;11.30;99.90
2687;DHT22;1353;51.386;7.028;2022-11-15T02:46:32;11.50;99.90
2687;DHT22;1353;51.386;7.028;2022-11-15T02:49:19;11.50;99.90
2687;DHT22;1353;51.386;7.028;2022-11-15T02:51:47;11.60;99.90
2687;DHT22;1353;51.386;7.028;2022-11-15T02:54:19;11.80;99.90
2687;DHT22;1353;51.386;7.028;2022-11-15T02:56:47;11.90;99.90
2687;DHT22;1353;51.386;7.028;2022-11-15T02:59:30;11.80;99.90
2687;DHT22;1353;51.386;7.028;2022-11-15T03:02:16;11.80;99.90
2687;DHT22;1353;51.386;7.028;2022-11-15T03:04:50;11.90;99.90
2687;DHT22;1353;51.386;7.028;2022-11-15T03:07:24;11.80;99.90
2687;DHT22;1353;51.386;7.028;2022-11-15T03:09:55;11.90;99.90
2687;DHT22;1353;51.386;7.028;2022-11-15T03:12:27;11.90;99.90
2687;DHT22;1353;51.386;7.028;2022-11-15T03:15:01;11.90;99.90
2687;DHT22;1353;51.386;7.028;2022-11-15T03:17:35;12.00;99.90
2687;DHT22;1353;51.386;7.028;2022-11-15T03:20:04;11.90;99.90
2687;DHT22;1353;51.386;7.028;2022-11-15T03:22:35;11.90;99.90
2687;DHT22;1353;51.386;7.028;2022-11-15T03:25:06;11.90;99.90
2687;DHT22;1353;51.386;7.028;2022-11-15T03:27:37;12.00;99.90
2687;DHT22;1353;51.386;7.028;2022-11-15T03:30:07;12.10;99.90
2687;DHT22;1353;51.386;7.028;2022-11-15T03:32:39;12.10;99.90
2687;DHT22;1353;51.386;7.028;2022-11-15T03:35:08;12.10;99.90
2687;DHT22;1353;51.386;7.028;2022-11-15T03:37:38;12.00;99.90
2687;DHT22;1353;51.386;7.028;2022-11-15T03:40:07;12.00;99.90
2687;DHT22;1353;51.386;7.028;2022-11-15T03:42:38;11.90;99.90
2687;DHT22;1353;51.386;7.028;2022-11-15T03:45:12;12.00;99.90
2687;DHT22;1353;51.386;7.028;2022-11-15T03:47:44;12.00;99.90
2687;DHT22;1353;51.386;7.028;2022-11-15T03:50:14;12.00;99.90
2687;DHT22;1353;51.386;7.028;2022-11-15T03:52:44;12.00;99.90
2687;DHT22;1353;51.386;7.028;2022-11-15T03:55:14;12.00;99.90
2687;DHT22;1353;51.386;7.028;2022-11-15T03:57:41;12.10;99.90
2687;DHT22;1353;51.386;7.028;2022-11-15T04:00:09;12.10;99.90
2687;DHT22;1353;51.386;7.028;2022-11-15T04:02:36;12.10;99.90
2687;DHT22;1353;51.386;7.028;2022-11-15T04:05:05;12.20;99.90
2687;DHT22;1353;51.386;7.028;2022-11-15T04:07:32;12.20;99.90
2687;DHT22;1353;51.386;7.028;2022-11-15T04:09:59;12.30;99.90
2687;DHT22;1353;51.386;7.028;2022-11-15T04:12:28;12.20;99.90
2687;DHT22;1353;51.386;7.028;2022-11-15T04:15:00;12.20;99.90
2687;DHT22;1353;51.386;7.028;2022-11-15T04:17:40;12.20;99.90
2687;DHT22;1353;51.386;7.028;2022-11-15T04:20:13;12.20;99.90
2687;DHT22;1353;51.386;7.028;2022-11-15T04:22:59;12.20;99.90
2687;DHT22;1353;51.386;7.028;2022-11-15T04:25:43;12.20;99.90
2687;DHT22;1353;51.386;7.028;2022-11-15T04:28:11;12.20;99.90
2687;DHT22;1353;51.386;7.028;2022-11-15T04:30:38;12.20;99.90
2687;DHT22;1353;51.386;7.028;2022-11-15T04:33:05;12.20;99.90
2687;DHT22;1353;51.386;7.028;2022-11-15T04:35:33;12.20;99.90
2687;DHT22;1353;51.386;7.028;2022-11-15T04:38:02;12.20;99.90
2687;DHT22;1353;51.386;7.028;2022-11-15T04:40:28;12.20;99.90
2687;DHT22;1353;51.386;7.028;2022-11-15T04:42:55;12.10;99.90
2687;DHT22;1353;51.386;7.028;2022-11-15T04:45:22;12.00;99.90
2687;DHT22;1353;51.386;7.028;2022-11-15T04:47:48;11.90;99.90
2687;DHT22;1353;51.386;7.028;2022-11-15T04:50:16;12.00;99.90
2687;DHT22;1353;51.386;7.028;2022-11-15T04:52:50;12.00;99.90
2687;DHT22;1353;51.386;7.028;2022-11-15T04:55:17;11.90;99.90
2687;DHT22;1353;51.386;7.028;2022-11-15T04:57:44;11.80;99.90
2687;DHT22;1353;51.386;7.028;2022-11-15T05:00:14;11.80;99.90
2687;DHT22;1353;51.386;7.028;2022-11-15T05:02:41;11.70;99.90
2687;DHT22;1353;51.386;7.028;2022-11-15T05:05:26;11.70;99.90
2687;DHT22;1353;51.386;7.028;2022-11-15T05:07:54;11.70;99.90
2687;DHT22;1353;51.386;7.028;2022-11-15T05:10:21;11.70;99.90
2687;DHT22;1353;51.386;7.028;2022-11-15T05:12:47;11.70;99.90
2687;DHT22;1353;51.386;7.028;2022-11-15T05:15:14;11.60;99.90
2687;DHT22;1353;51.386;7.028;2022-11-15T05:17:41;11.50;99.90
2687;DHT22;1353;51.386;7.028;2022-11-15T05:20:10;11.50;99.90
2687;DHT22;1353;51.386;7.028;2022-11-15T05:22:37;11.40;99.90
2687;DHT22;1353;51.386;7.028;2022-11-15T05:25:06;11.40;99.90
2687;DHT22;1353;51.386;7.028;2022-11-15T05:27:33;11.30;99.90
2687;DHT22;1353;51.386;7.028;2022-11-15T05:30:00;11.10;99.90
2687;DHT22;1353;51.386;7.028;2022-11-15T05:32:30;11.10;99.90
2687;DHT22;1353;51.386;7.028;2022-11-15T05:34:58;11.00;99.90
2687;DHT22;1353;51.386;7.028;2022-11-15T05:37:25;11.00;99.90
2687;DHT22;1353;51.386;7.028;2022-11-15T05:39:52;11.10;99.90
2687;DHT22;1353;51.386;7.028;2022-11-15T05:42:20;11.00;99.90
2687;DHT22;1353;51.386;7.028;2022-11-15T05:44:48;11.20;99.90
2687;DHT22;1353;51.386;7.028;2022-11-15T05:47:18;11.20;99.90
2687;DHT22;1353;51.386;7.028;2022-11-15T05:49:48;11.50;99.90
2687;DHT22;1353;51.386;7.028;2022-11-15T05:52:19;11.60;99.90
2687;DHT22;1353;51.386;7.028;2022-11-15T05:54:46;11.40;99.90
2687;DHT22;1353;51.386;7.028;2022-11-15T05:57:14;11.30;99.90
2687;DHT22;1353;51.386;7.028;2022-11-15T05:59:42;11.40;99.90
2687;DHT22;1353;51.386;7.028;2022-11-15T06:02:09;11.20;99.90
2687;DHT22;1353;51.386;7.028;2022-11-15T06:04:36;11.20;99.90
2687;DHT22;1353;51.386;7.028;2022-11-15T06:07:03;11.30;99.90
2687;DHT22;1353;51.386;7.028;2022-11-15T06:09:30;11.20;99.90
2687;DHT22;1353;51.386;7.028;2022-11-15T06:11:56;11.30;99.90
2687;DHT22;1353;51.386;7.028;2022-11-15T06:14:23;11.30;99.90
2687;DHT22;1353;51.386;7.028;2022-11-15T06:16:51;11.30;99.90
2687;DHT22;1353;51.386;7.028;2022-11-15T06:19:18;11.30;99.90
2687;DHT22;1353;51.386;7.028;2022-11-15T06:21:45;11.30;99.90
2687;DHT22;1353;51.386;7.028;2022-11-15T06:24:11;11.40;99.90
2687;DHT22;1353;51.386;7.028;2022-11-15T06:26:38;11.30;99.90
2687;DHT22;1353;51.386;7.028;2022-11-15T06:29:05;11.40;99.90
2687;DHT22;1353;51.386;7.028;2022-11-15T06:31:33;11.40;99.90
2687;DHT22;1353;51.386;7.028;2022-11-15T06:34:01;11.40;99.90
2687;DHT22;1353;51.386;7.028;2022-11-15T06:36:28;11.40;99.90
2687;DHT22;1353;51.386;7.028;2022-11-15T06:38:55;11.50;99.90
2687;DHT22;1353;51.386;7.028;2022-11-15T06:41:22;11.50;99.90
2687;DHT22;1353;51.386;7.028;2022-11-15T06:43:49;11.50;99.90
2687;DHT22;1353;51.386;7.028;2022-11-15T06:46:16;11.40;99.90
2687;DHT22;1353;51.386;7.028;2022-11-15T06:48:42;11.60;99.90
2687;DHT22;1353;51.386;7.028;2022-11-15T06:51:10;11.50;99.90
2687;DHT22;1353;51.386;7.028;2022-11-15T06:53:37;11.80;99.90
2687;DHT22;1353;51.386;7.028;2022-11-15T06:56:05;11.60;99.90
2687;DHT22;1353;51.386;7.028;2022-11-15T06:58:32;11.60;99.90
2687;DHT22;1353;51.386;7.028;2022-11-15T07:01:00;11.80;99.90
2687;DHT22;1353;51.386;7.028;2022-11-15T07:03:28;11.90;99.90
2687;DHT22;1353;51.386;7.028;2022-11-15T07:05:55;11.70;99.90
2687;DHT22;1353;51.386;7.028;2022-11-15T07:08:26;11.60;99.90
2687;DHT22;1353;51.386;7.028;2022-11-15T07:10:53;11.70;99.90
2687;DHT22;1353;51.386;7.028;2022-11-15T07:13:24;11.80;99.90
2687;DHT22;1353;51.386;7.028;2022-11-15T07:15:50;11.70;99.90
2687;DHT22;1353;51.386;7.028;2022-11-15T07:18:17;11.60;99.90
2687;DHT22;1353;51.386;7.028;2022-11-15T07:20:44;11.90;99.90
2687;DHT22;1353;51.386;7.028;2022-11-15T07:23:11;12.00;99.90
2687;DHT22;1353;51.386;7.028;2022-11-15T07:25:40;11.90;99.90
2687;DHT22;1353;51.386;7.028;2022-11-15T07:28:07;12.00;99.90
2687;DHT22;1353;51.386;7.028;2022-11-15T07:30:33;11.80;99.90
2687;DHT22;1353;51.386;7.028;2022-11-15T07:33:00;11.70;99.90
2687;DHT22;1353;51.386;7.028;2022-11-15T07:35:28;11.60;99.90
2687;DHT22;1353;51.386;7.028;2022-11-15T07:37:56;11.70;99.90
2687;DHT22;1353;51.386;7.028;2022-11-15T07:40:24;11.70;99.90
2687;DHT22;1353;51.386;7.028;2022-11-15T07:42:52;11.90;99.90
2687;DHT22;1353;51.386;7.028;2022-11-15T07:45:19;12.00;99.90
2687;DHT22;1353;51.386;7.028;2022-11-15T07:47:46;11.80;99.90
2687;DHT22;1353;51.386;7.028;2022-11-15T07:50:13;11.70;99.90
2687;DHT22;1353;51.386;7.028;2022-11-15T07:52:39;11.80;99.90
2687;DHT22;1353;51.386;7.028;2022-11-15T07:55:07;11.70;99.90
2687;DHT22;1353;51.386;7.028;2022-11-15T07:57:34;11.70;99.90
2687;DHT22;1353;51.386;7.028;2022-11-15T08:00:03;12.20;99.90
2687;DHT22;1353;51.386;7.028;2022-11-15T08:02:30;12.60;99.90
2687;DHT22;1353;51.386;7.028;2022-11-15T08:04:56;12.60;99.90
2687;DHT22;1353;51.386;7.028;2022-11-15T08:07:24;12.60;99.90
2687;DHT22;1353;51.386;7.028;2022-11-15T08:09:51;12.80;99.90
2687;DHT22;1353;51.386;7.028;2022-11-15T08:12:18;13.50;99.90
2687;DHT22;1353;51.386;7.028;2022-11-15T08:14:45;13.60;99.90
2687;DHT22;1353;51.386;7.028;2022-11-15T08:17:13;13.30;99.90
2687;DHT22;1353;51.386;7.028;2022-11-15T08:19:40;13.00;99.90
2687;DHT22;1353;51.386;7.028;2022-11-15T08:22:07;13.10;99.90
2687;DHT22;1353;51.386;7.028;2022-11-15T08:24:34;13.10;99.90
2687;DHT22;1353;51.386;7.028;2022-11-15T08:27:00;13.30;99.90
2687;DHT22;1353;51.386;7.028;2022-11-15T08:29:27;13.20;99.90
2687;DHT22;1353;51.386;7.028;2022-11-15T08:31:54;13.10;99.90
2687;DHT22;1353;51.386;7.028;2022-11-15T08:34:22;12.90;99.90
2687;DHT22;1353;51.386;7.028;2022-11-15T08:36:49;12.80;99.90
2687;DHT22;1353;51.386;7.028;2022-11-15T08:39:16;12.90;99.90
2687;DHT22;1353;51.386;7.028;2022-11-15T08:41:43;13.00;99.90
2687;DHT22;1353;51.386;7.028;2022-11-15T08:44:10;12.70;99.90
2687;DHT22;1353;51.386;7.028;2022-11-15T08:46:36;12.20;99.90
2687;DHT22;1353;51.386;7.028;2022-11-15T08:49:03;12.30;99.90
2687;DHT22;1353;51.386;7.028;2022-11-15T08:51:31;12.60;99.90
2687;DHT22;1353;51.386;7.028;2022-11-15T08:53:58;12.70;99.90
2687;DHT22;1353;51.386;7.028;2022-11-15T08:56:25;12.40;99.90
2687;DHT22;1353;51.386;7.028;2022-11-15T08:58:51;12.40;99.90
2687;DHT22;1353;51.386;7.028;2022-11-15T09:01:20;12.40;99.90
2687;DHT22;1353;51.386;7.028;2022-11-15T09:03:47;12.40;99.90
2687;DHT22;1353;51.386;7.028;2022-11-15T09:06:14;12.40;99.90
2687;DHT22;1353;51.386;7.028;2022-11-15T09:08:42;12.60;99.90
2687;DHT22;1353;51.386;7.028;2022-11-15T09:11:10;13.00;99.90
2687;DHT22;1353;51.386;7.028;2022-11-15T09:13:36;13.20;99.90
2687;DHT22;1353;51.386;7.028;2022-11-15T09:16:04;13.30;99.90
2687;DHT22;1353;51.386;7.028;2022-11-15T09:18:32;13.20;99.90
2687;DHT22;1353;51.386;7.028;2022-11-15T09:20:59;13.30;99.90
2687;DHT22;1353;51.386;7.028;2022-11-15T09:23:27;13.00;99.90
2687;DHT22;1353;51.386;7.028;2022-11-15T09:26:00;12.80;99.90
2687;DHT22;1353;51.386;7.028;2022-11-15T09:28:28;12.90;99.90
2687;DHT22;1353;51.386;7.028;2022-11-15T09:30:56;13.10;99.90
2687;DHT22;1353;51.386;7.028;2022-11-15T09:33:24;13.20;99.90
2687;DHT22;1353;51.386;7.028;2022-11-15T09:35:51;13.30;99.90
2687;DHT22;1353;51.386;7.028;2022-11-15T09:38:17;13.40;99.90
2687;DHT22;1353;51.386;7.028;2022-11-15T09:40:47;13.30;99.90
2687;DHT22;1353;51.386;7.028;2022-11-15T09:43:28;13.60;99.90
2687;DHT22;1353;51.386;7.028;2022-11-15T09:46:07;13.40;99.90
2687;DHT22;1353;51.386;7.028;2022-11-15T09:48:48;13.30;99.90
2687;DHT22;1353;51.386;7.028;2022-11-15T09:51:22;13.20;99.90
2687;DHT22;1353;51.386;7.028;2022-11-15T09:53:58;13.10;99.90
2687;DHT22;1353;51.386;7.028;2022-11-15T09:56:30;12.60;99.90
2687;DHT22;1353;51.386;7.028;2022-11-15T09:59:13;12.90;99.90
2687;DHT22;1353;51.386;7.028;2022-11-15T10:01:53;13.00;99.90
2687;DHT22;1353;51.386;7.028;2022-11-15T10:04:23;13.10;99.90
2687;DHT22;1353;51.386;7.028;2022-11-15T10:06:56;12.90;99.90
2687;DHT22;1353;51.386;7.028;2022-11-15T10:09:28;12.60;99.90
2687;DHT22;1353;51.386;7.028;2022-11-15T10:11:55;12.80;99.90
2687;DHT22;1353;51.386;7.028;2022-11-15T10:14:26;12.80;99.90
2687;DHT22;1353;51.386;7.028;2022-11-15T10:20:03;12.70;99.90
2687;DHT22;1353;51.386;7.028;2022-11-15T10:22:37;12.70;99.90
2687;DHT22;1353;51.386;7.028;2022-11-15T10:25:20;12.70;99.90
2687;DHT22;1353;51.386;7.028;2022-11-15T10:27:54;12.60;99.90
2687;DHT22;1353;51.386;7.028;2022-11-15T10:30:28;12.80;99.90
2687;DHT22;1353;51.386;7.028;2022-11-15T10:32:56;12.70;99.90
2687;DHT22;1353;51.386;7.028;2022-11-15T10:35:25;12.70;99.90
2687;DHT22;1353;51.386;7.028;2022-11-15T10:38:04;12.70;99.90
2687;DHT22;1353;51.386;7.028;2022-11-15T10:40:32;12.80;99.90
2687;DHT22;1353;51.386;7.028;2022-11-15T10:43:05;12.80;99.90
2687;DHT22;1353;51.386;7.028;2022-11-15T10:45:39;12.70;99.90
2687;DHT22;1353;51.386;7.028;2022-11-15T10:48:23;12.70;99.90
2687;DHT22;1353;51.386;7.028;2022-11-15T10:50:52;12.80;99.90
2687;DHT22;1353;51.386;7.028;2022-11-15T10:53:38;12.80;99.90
2687;DHT22;1353;51.386;7.028;2022-11-15T10:56:12;13.00;99.90
2687;DHT22;1353;51.386;7.028;2022-11-15T10:58:43;12.90;99.90
2687;DHT22;1353;51.386;7.028;2022-11-15T11:01:14;12.90;99.90
2687;DHT22;1353;51.386;7.028;2022-11-15T11:03:43;12.80;99.90
2687;DHT22;1353;51.386;7.028;2022-11-15T11:06:12;12.80;99.90
2687;DHT22;1353;51.386;7.028;2022-11-15T11:08:39;12.80;99.90
2687;DHT22;1353;51.386;7.028;2022-11-15T11:11:07;12.70;99.90
2687;DHT22;1353;51.386;7.028;2022-11-15T11:13:36;12.80;99.90
2687;DHT22;1353;51.386;7.028;2022-11-15T11:16:20;12.80;99.90
2687;DHT22;1353;51.386;7.028;2022-11-15T11:18:55;12.80;99.90
2687;DHT22;1353;51.386;7.028;2022-11-15T11:21:31;12.80;99.90
2687;DHT22;1353;51.386;7.028;2022-11-15T11:24:08;12.80;99.90
2687;DHT22;1353;51.386;7.028;2022-11-15T11:26:42;12.80;99.90
2687;DHT22;1353;51.386;7.028;2022-11-15T11:29:24;12.80;99.90
2687;DHT22;1353;51.386;7.028;2022-11-15T11:32:00;12.80;99.90
2687;DHT22;1353;51.386;7.028;2022-11-15T11:34:38;12.90;99.90
2687;DHT22;1353;51.386;7.028;2022-11-15T11:37:14;12.90;99.90
2687;DHT22;1353;51.386;7.028;2022-11-15T11:39:50;12.90;99.90
2687;DHT22;1353;51.386;7.028;2022-11-15T11:42:29;12.80;99.90
2687;DHT22;1353;51.386;7.028;2022-11-15T11:45:10;12.80;99.90
2687;DHT22;1353;51.386;7.028;2022-11-15T11:47:47;12.90;99.90
2687;DHT22;1353;51.386;7.028;2022-11-15T11:50:17;12.90;99.90
2687;DHT22;1353;51.386;7.028;2022-11-15T11:52:54;12.80;99.90
2687;DHT22;1353;51.386;7.028;2022-11-15T11:55:24;12.80;99.90
2687;DHT22;1353;51.386;7.028;2022-11-15T11:58:11;12.80;99.90
2687;DHT22;1353;51.386;7.028;2022-11-15T12:00:40;12.90;99.90
2687;DHT22;1353;51.386;7.028;2022-11-15T12:03:12;13.00;99.90
2687;DHT22;1353;51.386;7.028;2022-11-15T12:05:42;12.90;99.90
2687;DHT22;1353;51.386;7.028;2022-11-15T12:08:27;13.00;99.90
2687;DHT22;1353;51.386;7.028;2022-11-15T12:11:00;12.90;99.90
2687;DHT22;1353;51.386;7.028;2022-11-15T12:13:30;12.80;99.90
2687;DHT22;1353;51.386;7.028;2022-11-15T12:16:07;12.80;99.90
2687;DHT22;1353;51.386;7.028;2022-11-15T12:18:38;12.90;99.90
2687;DHT22;1353;51.386;7.028;2022-11-15T12:21:13;12.90;99.90
2687;DHT22;1353;51.386;7.028;2022-11-15T12:23:44;12.80;99.90
2687;DHT22;1353;51.386;7.028;2022-11-15T12:26:17;12.80;99.90
2687;DHT22;1353;51.386;7.028;2022-11-15T12:28:48;12.80;99.90
2687;DHT22;1353;51.386;7.028;2022-11-15T12:31:19;13.00;99.90
2687;DHT22;1353;51.386;7.028;2022-11-15T12:33:49;13.00;99.90
2687;DHT22;1353;51.386;7.028;2022-11-15T12:36:35;13.00;99.90
2687;DHT22;1353;51.386;7.028;2022-11-15T12:39:05;13.00;99.90
2687;DHT22;1353;51.386;7.028;2022-11-15T12:41:33;13.00;99.90
2687;DHT22;1353;51.386;7.028;2022-11-15T12:44:01;13.00;99.90
2687;DHT22;1353;51.386;7.028;2022-11-15T12:47:03;13.00;99.90
2687;DHT22;1353;51.386;7.028;2022-11-15T12:49:45;13.10;99.90
2687;DHT22;1353;51.386;7.028;2022-11-15T12:52:13;13.00;99.90
2687;DHT22;1353;51.386;7.028;2022-11-15T12:55:00;13.10;99.90
2687;DHT22;1353;51.386;7.028;2022-11-15T12:57:36;13.00;99.90
2687;DHT22;1353;51.386;7.028;2022-11-15T13:03:26;13.10;99.90
2687;DHT22;1353;51.386;7.028;2022-11-15T13:08:54;13.20;99.90
2687;DHT22;1353;51.386;7.028;2022-11-15T13:11:47;13.20;99.90
2687;DHT22;1353;51.386;7.028;2022-11-15T13:14:44;13.30;99.90
2687;DHT22;1353;51.386;7.028;2022-11-15T13:17:35;13.20;99.90
2687;DHT22;1353;51.386;7.028;2022-11-15T13:20:25;13.30;99.90
2687;DHT22;1353;51.386;7.028;2022-11-15T13:23:01;13.30;99.90
2687;DHT22;1353;51.386;7.028;2022-11-15T13:26:02;13.30;99.90
2687;DHT22;1353;51.386;7.028;2022-11-15T13:28:33;13.20;99.90
2687;DHT22;1353;51.386;7.028;2022-11-15T13:31:12;13.20;99.90
2687;DHT22;1353;51.386;7.028;2022-11-15T13:33:40;13.30;99.90
2687;DHT22;1353;51.386;7.028;2022-11-15T13:36:12;13.30;99.90
2687;DHT22;1353;51.386;7.028;2022-11-15T13:38:42;13.20;99.90
2687;DHT22;1353;51.386;7.028;2022-11-15T13:41:17;13.20;99.90
2687;DHT22;1353;51.386;7.028;2022-11-15T13:43:45;13.20;99.90
2687;DHT22;1353;51.386;7.028;2022-11-15T13:46:15;13.30;99.90
2687;DHT22;1353;51.386;7.028;2022-11-15T13:48:44;13.20;99.90
2687;DHT22;1353;51.386;7.028;2022-11-15T13:51:17;13.30;99.90
2687;DHT22;1353;51.386;7.028;2022-11-15T13:53:49;13.20;99.90
2687;DHT22;1353;51.386;7.028;2022-11-15T13:56:18;13.20;99.90
2687;DHT22;1353;51.386;7.028;2022-11-15T13:58:46;13.30;99.90
2687;DHT22;1353;51.386;7.028;2022-11-15T14:01:16;13.20;99.90
2687;DHT22;1353;51.386;7.028;2022-11-15T14:03:50;13.20;99.90
2687;DHT22;1353;51.386;7.028;2022-11-15T14:06:19;13.20;99.90
2687;DHT22;1353;51.386;7.028;2022-11-15T14:09:14;13.20;99.90
2687;DHT22;1353;51.386;7.028;2022-11-15T14:11:50;13.30;99.90
2687;DHT22;1353;51.386;7.028;2022-11-15T14:14:20;13.30;99.90
2687;DHT22;1353;51.386;7.028;2022-11-15T14:16:49;13.30;99.90
2687;DHT22;1353;51.386;7.028;2022-11-15T14:19:35;13.20;99.90
2687;DHT22;1353;51.386;7.028;2022-11-15T14:22:15;13.30;99.90
2687;DHT22;1353;51.386;7.028;2022-11-15T14:24:46;13.30;99.90
2687;DHT22;1353;51.386;7.028;2022-11-15T14:27:23;13.30;99.90
2687;DHT22;1353;51.386;7.028;2022-11-15T14:29:50;13.20;99.90
2687;DHT22;1353;51.386;7.028;2022-11-15T14:32:18;13.20;99.90
2687;DHT22;1353;51.386;7.028;2022-11-15T14:34:46;13.20;99.90
2687;DHT22;1353;51.386;7.028;2022-11-15T14:37:22;13.20;99.90
2687;DHT22;1353;51.386;7.028;2022-11-15T14:39:50;13.20;99.90
2687;DHT22;1353;51.386;7.028;2022-11-15T14:42:18;13.20;99.90
2687;DHT22;1353;51.386;7.028;2022-11-15T14:44:45;13.10;99.90
2687;DHT22;1353;51.386;7.028;2022-11-15T14:47:12;13.10;99.90
2687;DHT22;1353;51.386;7.028;2022-11-15T14:49:39;13.10;99.90
2687;DHT22;1353;51.386;7.028;2022-11-15T14:52:25;13.10;99.90
2687;DHT22;1353;51.386;7.028;2022-11-15T14:54:54;13.10;99.90
2687;DHT22;1353;51.386;7.028;2022-11-15T14:57:21;13.10;99.90
2687;DHT22;1353;51.386;7.028;2022-11-15T14:59:48;13.10;99.90
2687;DHT22;1353;51.386;7.028;2022-11-15T15:02:18;13.10;99.90
2687;DHT22;1353;51.386;7.028;2022-11-15T15:04:45;13.10;99.90
2687;DHT22;1353;51.386;7.028;2022-11-15T15:07:12;13.00;99.90
2687;DHT22;1353;51.386;7.028;2022-11-15T15:09:39;13.00;99.90
2687;DHT22;1353;51.386;7.028;2022-11-15T15:12:14;13.10;99.90
2687;DHT22;1353;51.386;7.028;2022-11-15T15:14:41;13.00;99.90
2687;DHT22;1353;51.386;7.028;2022-11-15T15:17:08;13.00;99.90
2687;DHT22;1353;51.386;7.028;2022-11-15T15:19:35;13.00;99.90
2687;DHT22;1353;51.386;7.028;2022-11-15T15:22:02;13.00;99.90
2687;DHT22;1353;51.386;7.028;2022-11-15T15:24:28;13.00;99.90
2687;DHT22;1353;51.386;7.028;2022-11-15T15:26:55;13.00;99.90
2687;DHT22;1353;51.386;7.028;2022-11-15T15:29:23;13.00;99.90
2687;DHT22;1353;51.386;7.028;2022-11-15T15:31:50;13.00;99.90
2687;DHT22;1353;51.386;7.028;2022-11-15T15:34:17;12.90;99.90
2687;DHT22;1353;51.386;7.028;2022-11-15T15:36:43;12.90;99.90
2687;DHT22;1353;51.386;7.028;2022-11-15T15:39:10;12.90;99.90
2687;DHT22;1353;51.386;7.028;2022-11-15T15:41:37;12.80;99.90
2687;DHT22;1353;51.386;7.028;2022-11-15T15:44:04;12.90;99.90
2687;DHT22;1353;51.386;7.028;2022-11-15T15:46:34;12.90;99.90
2687;DHT22;1353;51.386;7.028;2022-11-15T15:49:00;12.80;99.90
2687;DHT22;1353;51.386;7.028;2022-11-15T15:51:27;12.80;99.90
2687;DHT22;1353;51.386;7.028;2022-11-15T15:53:54;12.90;99.90
2687;DHT22;1353;51.386;7.028;2022-11-15T15:56:22;12.90;99.90
2687;DHT22;1353;51.386;7.028;2022-11-15T15:58:49;13.00;99.90
2687;DHT22;1353;51.386;7.028;2022-11-15T16:01:18;12.90;99.90
2687;DHT22;1353;51.386;7.028;2022-11-15T16:03:47;12.90;99.90
2687;DHT22;1353;51.386;7.028;2022-11-15T16:06:36;12.90;99.90
2687;DHT22;1353;51.386;7.028;2022-11-15T16:09:04;12.90;99.90
2687;DHT22;1353;51.386;7.028;2022-11-15T16:11:31;12.90;99.90
2687;DHT22;1353;51.386;7.028;2022-11-15T16:13:59;12.90;99.90
2687;DHT22;1353;51.386;7.028;2022-11-15T16:16:25;12.90;99.90
2687;DHT22;1353;51.386;7.028;2022-11-15T16:18:53;12.90;99.90
2687;DHT22;1353;51.386;7.028;2022-11-15T16:21:20;12.90;99.90
2687;DHT22;1353;51.386;7.028;2022-11-15T16:23:47;12.90;99.90
2687;DHT22;1353;51.386;7.028;2022-11-15T16:26:20;12.80;99.90
2687;DHT22;1353;51.386;7.028;2022-11-15T16:28:47;12.80;99.90
2687;DHT22;1353;51.386;7.028;2022-11-15T16:31:14;12.90;99.90
2687;DHT22;1353;51.386;7.028;2022-11-15T16:33:43;12.90;99.90